Details From HELX - LUXOR INTL
To HESH - SHARM EL SHEIKH INTL
Flight Number -
Tags generated
Created
Modified
Stats Distance 165 nm / 306 km
Max Altitude 11,300 ft / 3,444 m
Waypoints 3
Social Downloads 1
Likes 0
Share VATSIM

Download

Looking for another format? Having issues loading an existing format? Contact us
Advertisement - Login to hide

Notes

Basic altitude profile: - Ascent Rate: 2500ft/min - Ascent Speed: 250kts - Cruise Altitude: 35000ft - Cruise Speed: 420kts - Descent Rate: 1500ft/min - Descent Speed: 250kts Options: - Use NATs: yes - Use PACOTS: yes - Use low airways: yes - Use high airways: yes

Route

HELX HGD HESH

ID Type Via Altitude Latitude Longitude Leg Dist Tot Dist Heading (true) Name
O HELX APT - 0 ft / 0 m 25.67109˚ 32.70640˚ - 0 nm - LUXOR INTL
HGD VOR - 11,300 ft / 3,444 m 27.17776˚ 33.79639˚ 107 nm 107 nm 33° / 33° HURGHADA VOR-DME
O HESH APT - 0 ft / 0 m 27.97732˚ 34.39495˚ 57 nm 165 nm 33° / 34° SHARM EL SHEIKH INTL

Altitude Profile

Advertisement - Login to hide

Weather


0- 5 10 15 20 25 30 35+ Temperature / ° C

Clouds and Precipitation
Forecast for 2017-12-16 00:00 UTC. Updated an hour ago

Ground ~20,000 ft ~40,000 ft Winds

HELX

Details ICAO HELX (LXR)
Name LUXOR INTL
Region Egypt
Timezone Africa/Cairo (UTC+2.0)
Stats Elevation 294 ft / 90 m (AMSL)
Location 25.671086° 32.706403°
Runways 1
Magnetic Variation 4.083° E

METAR

HELX 152200Z 00000KT CAVOK 14/05 Q1019 NOSIG

Decode

TAF

TAF HELX 151100Z 1512/1618 36006KT CAVOK

Decode

Departure Runways

ID Width Length Bearing (true) Bearing (mag) Surface Threshold Offset Overrun Length
02 148 ft / 45 m 9,874 ft / 3,010 m 22.46° 18.38° Asphalt 0 ft / 0 m 215 ft / 66 m
20 148 ft / 45 m 9,874 ft / 3,010 m 202.47° 198.39° Asphalt 0 ft / 0 m 215 ft / 66 m

HESH

Details ICAO HESH (SSH)
Name SHARM EL SHEIKH INTL
Region Egypt
Timezone Africa/Cairo (UTC+2.0)
Stats Elevation 143 ft / 44 m (AMSL)
Location 27.977318° 34.394945°
Runways 2
Magnetic Variation 4.282° E

METAR

HESH 152200Z 36008KT CAVOK 19/05 Q1019 NOSIG

Decode

TAF

Not found

Destination Runways

ID Width Length Bearing (true) Bearing (mag) Surface Threshold Offset Overrun Length
04L 148 ft / 45 m 10,120 ft / 3,085 m 42.65° 38.37° Asphalt 0 ft / 0 m 200 ft / 61 m
04R 148 ft / 45 m 10,121 ft / 3,085 m 42.65° 38.37° Asphalt 0 ft / 0 m 200 ft / 61 m
22L 148 ft / 45 m 10,121 ft / 3,085 m 222.66° 218.38° Asphalt 0 ft / 0 m 200 ft / 61 m
22R 148 ft / 45 m 10,120 ft / 3,085 m 222.66° 218.38° Asphalt 0 ft / 0 m 200 ft / 61 m

Approach Navaids

Runway Type Ident Frequency Range Bearing (true) Bearing (mag) Slope Elevation
04L Localiser KIL 109.50 MHz 18 nm / 33 km 42.67° 38.39° - 130 ft / 40 m (AMSL)
04L Glidescope KIL 109.50 MHz 10 nm / 19 km 42.65° 38.37° 3.00° 160 ft / 49 m (AMSL)
04L DME KIL 109.50 MHz 18 nm / 33 km - - - 160 ft / 49 m (AMSL)